createdAt,value
2016-10-17T00:00:05.314Z,0
2016-10-17T00:01:05.617Z,0
2016-10-17T00:02:05.310Z,0
2016-10-17T00:03:05.596Z,0
2016-10-17T00:04:05.262Z,0
2016-10-17T00:05:05.243Z,0
2016-10-17T00:06:05.233Z,0
2016-10-17T00:07:05.225Z,0
2016-10-17T00:08:05.226Z,0
2016-10-17T00:09:05.504Z,0
2016-10-17T00:10:05.812Z,0
2016-10-17T00:11:05.161Z,0
2016-10-17T00:12:05.159Z,0
2016-10-17T00:13:05.138Z,0
2016-10-17T00:14:05.124Z,0
2016-10-17T00:15:05.104Z,0
2016-10-17T00:16:05.099Z,0
2016-10-17T00:17:05.077Z,0
2016-10-17T00:18:05.054Z,0
2016-10-17T00:19:05.363Z,0
2016-10-17T00:20:05.038Z,0
2016-10-17T00:21:05.022Z,0
2016-10-17T00:22:05.005Z,0
2016-10-17T00:23:05.617Z,0
2016-10-17T00:24:04.978Z,0
2016-10-17T00:25:04.977Z,0
2016-10-17T00:26:04.956Z,0
2016-10-17T00:27:05.255Z,0
2016-10-17T00:28:04.971Z,0
2016-10-17T00:29:04.918Z,0
2016-10-17T00:30:04.896Z,0
2016-10-17T00:31:05.191Z,0
2016-10-17T00:32:04.871Z,0
2016-10-17T00:33:04.856Z,0
2016-10-17T00:34:04.844Z,0
2016-10-17T00:35:05.140Z,0
2016-10-17T00:36:05.126Z,0
2016-10-17T00:37:04.807Z,0
2016-10-17T00:38:04.787Z,0
2016-10-17T00:39:05.120Z,0
2016-10-17T00:40:04.761Z,0
2016-10-17T00:41:04.750Z,0
2016-10-17T00:42:04.733Z,0
2016-10-17T00:43:04.714Z,0
2016-10-17T00:44:04.715Z,0
2016-10-17T00:45:04.683Z,0
2016-10-17T00:46:04.683Z,0
2016-10-17T00:47:04.663Z,0
2016-10-17T00:48:04.672Z,0
2016-10-17T00:49:04.957Z,0
2016-10-17T00:50:04.947Z,0
2016-10-17T00:51:04.611Z,0
2016-10-17T00:52:04.593Z,0
2016-10-17T00:53:04.899Z,0
2016-10-17T00:54:04.565Z,0
2016-10-17T00:55:04.553Z,0
2016-10-17T00:56:04.543Z,0
2016-10-17T00:57:04.847Z,0
2016-10-17T00:58:04.515Z,0
2016-10-17T00:59:04.815Z,0
2016-10-17T01:00:04.489Z,0
2016-10-17T01:01:05.098Z,0
2016-10-17T01:02:04.476Z,0
2016-10-17T01:03:04.813Z,0
2016-10-17T01:04:04.435Z,0
2016-10-17T01:05:04.738Z,0
2016-10-17T01:06:04.411Z,0
2016-10-17T01:07:04.716Z,0
2016-10-17T01:08:04.693Z,0
2016-10-17T01:09:04.383Z,0
2016-10-17T01:10:04.360Z,0
2016-10-17T01:11:04.369Z,0
2016-10-17T01:12:04.332Z,0
2016-10-17T01:13:04.320Z,0
2016-10-17T01:14:04.302Z,0
2016-10-17T01:15:04.282Z,0
2016-10-17T01:16:04.276Z,0
2016-10-17T01:17:04.467Z,0
2016-10-17T01:18:04.252Z,0
2016-10-17T01:19:04.233Z,0
2016-10-17T01:20:04.223Z,0
2016-10-17T01:21:04.212Z,0
2016-10-17T01:22:04.193Z,0
2016-10-17T01:23:04.515Z,0
2016-10-17T01:24:04.809Z,0
2016-10-17T01:25:04.477Z,0
2016-10-17T01:26:04.148Z,0
2016-10-17T01:27:04.446Z,0
2016-10-17T01:28:04.425Z,0
2016-10-17T01:29:04.412Z,0
2016-10-17T01:30:04.407Z,0
2016-10-17T01:31:04.074Z,0
2016-10-17T01:32:04.067Z,0
2016-10-17T01:33:04.673Z,0
2016-10-17T01:34:04.359Z,0
2016-10-17T01:35:04.029Z,0
2016-10-17T01:36:04.022Z,0
2016-10-17T01:37:04.007Z,0
2016-10-17T01:38:03.980Z,0
2016-10-17T01:39:03.977Z,0
2016-10-17T01:40:03.957Z,0
2016-10-17T01:41:03.945Z,0
2016-10-17T01:42:03.938Z,0
2016-10-17T01:43:03.923Z,0
2016-10-17T01:44:03.901Z,0
2016-10-17T01:45:04.201Z,0
2016-10-17T01:46:03.887Z,0
2016-10-17T01:47:03.866Z,0
2016-10-17T01:48:03.855Z,0
2016-10-17T01:49:04.160Z,0
2016-10-17T01:50:03.841Z,0
2016-10-17T01:51:03.810Z,0
2016-10-17T01:52:04.132Z,0
2016-10-17T01:53:04.109Z,0
2016-10-17T01:54:03.773Z,0
2016-10-17T01:55:04.083Z,0
2016-10-17T01:56:03.743Z,0
2016-10-17T01:57:04.060Z,0
2016-10-17T01:58:03.735Z,0
2016-10-17T01:59:03.730Z,0
2016-10-17T02:00:03.698Z,0
2016-10-17T02:01:03.685Z,0
2016-10-17T02:02:03.684Z,0
2016-10-17T02:03:03.650Z,0
2016-10-17T02:04:03.695Z,0
2016-10-17T02:05:03.632Z,0
2016-10-17T02:06:03.652Z,0
2016-10-17T02:07:03.629Z,0
2016-10-17T02:08:03.906Z,0
2016-10-17T02:09:03.894Z,0
2016-10-17T02:10:03.568Z,0
2016-10-17T02:11:03.866Z,0
2016-10-17T02:12:03.538Z,0
2016-10-17T02:13:03.844Z,0
2016-10-17T02:14:03.832Z,0
2016-10-17T02:15:04.140Z,0
2016-10-17T02:16:03.802Z,0
2016-10-17T02:17:03.477Z,0
2016-10-17T02:18:03.463Z,0
2016-10-17T02:19:03.450Z,0
2016-10-17T02:20:03.436Z,0
2016-10-17T02:21:03.435Z,0
2016-10-17T02:22:03.730Z,0
2016-10-17T02:23:03.711Z,0
2016-10-17T02:24:03.383Z,0
2016-10-17T02:25:03.374Z,0
2016-10-17T02:26:03.354Z,0
2016-10-17T02:27:03.358Z,0
2016-10-17T02:28:03.341Z,0
2016-10-17T02:29:03.337Z,0
2016-10-17T02:30:03.321Z,0
2016-10-17T02:31:03.296Z,0
2016-10-17T02:32:03.288Z,0
2016-10-17T02:33:03.590Z,0
2016-10-17T02:34:03.305Z,0
2016-10-17T02:35:03.273Z,0
2016-10-17T02:36:03.897Z,0
2016-10-17T02:37:03.538Z,0
2016-10-17T02:38:03.532Z,0
2016-10-17T02:39:03.199Z,0
2016-10-17T02:40:03.210Z,0
2016-10-17T02:41:03.490Z,0
2016-10-17T02:42:03.783Z,0
2016-10-17T02:43:03.462Z,0
2016-10-17T02:44:03.135Z,0
2016-10-17T02:45:03.116Z,0
2016-10-17T02:46:03.106Z,0
2016-10-17T02:47:03.088Z,0
2016-10-17T02:48:03.088Z,0
2016-10-17T02:49:03.387Z,0
2016-10-17T02:50:03.056Z,0
2016-10-17T02:51:03.047Z,0
2016-10-17T02:52:03.030Z,0
2016-10-17T02:53:03.013Z,0
2016-10-17T02:54:03.016Z,0
2016-10-17T02:55:03.040Z,0
2016-10-17T02:56:02.977Z,0
2016-10-17T02:57:02.968Z,0
2016-10-17T02:58:03.577Z,0
2016-10-17T02:59:02.941Z,0
2016-10-17T03:00:03.245Z,0
2016-10-17T03:01:03.236Z,0
2016-10-17T03:02:03.531Z,0
2016-10-17T03:03:02.877Z,0
2016-10-17T03:04:03.190Z,0
2016-10-17T03:05:02.862Z,0
2016-10-17T03:06:03.164Z,0
2016-10-17T03:07:02.832Z,0
2016-10-17T03:08:03.133Z,0
2016-10-17T03:09:03.142Z,0
2016-10-17T03:10:02.796Z,0
2016-10-17T03:11:03.102Z,0
2016-10-17T03:12:03.406Z,0
2016-10-17T03:13:03.073Z,0
2016-10-17T03:14:02.745Z,0
2016-10-17T03:15:02.727Z,0
2016-10-17T03:16:02.744Z,0
2016-10-17T03:17:02.913Z,0
2016-10-17T03:18:03.013Z,0
2016-10-17T03:19:03.011Z,0
2016-10-17T03:20:02.675Z,0
2016-10-17T03:21:02.662Z,0
2016-10-17T03:22:02.967Z,0
2016-10-17T03:23:02.645Z,0
2016-10-17T03:24:02.612Z,0
2016-10-17T03:25:02.610Z,0
2016-10-17T03:26:02.599Z,0
2016-10-17T03:27:02.604Z,0
2016-10-17T03:28:02.569Z,0
2016-10-17T03:29:03.180Z,0
2016-10-17T03:30:03.165Z,0
2016-10-17T03:31:02.525Z,0
2016-10-17T03:32:02.517Z,0
2016-10-17T03:33:02.819Z,0
2016-10-17T03:34:02.492Z,0
2016-10-17T03:35:02.839Z,0
2016-10-17T03:36:02.768Z,0
2016-10-17T03:37:02.760Z,0
2016-10-17T03:38:02.445Z,0
2016-10-17T03:39:02.424Z,0
2016-10-17T03:40:02.409Z,0
2016-10-17T03:41:02.397Z,0
2016-10-17T03:42:02.386Z,0
2016-10-17T03:43:03.002Z,0
2016-10-17T03:44:02.358Z,0
2016-10-17T03:45:02.344Z,0
2016-10-17T03:46:02.352Z,0
2016-10-17T03:47:02.647Z,0
2016-10-17T03:48:02.316Z,0
2016-10-17T03:49:02.607Z,0
2016-10-17T03:50:02.591Z,0
2016-10-17T03:51:02.587Z,0
2016-10-17T03:52:02.257Z,0
2016-10-17T03:53:02.240Z,0
2016-10-17T03:54:02.245Z,0
2016-10-17T03:55:02.217Z,0
2016-10-17T03:56:02.522Z,0
2016-10-17T03:57:02.819Z,0
2016-10-17T03:58:02.497Z,0
2016-10-17T03:59:02.163Z,0
2016-10-17T04:00:02.782Z,0
2016-10-17T04:01:02.143Z,0
2016-10-17T04:02:02.126Z,0
2016-10-17T04:03:02.736Z,0
2016-10-17T04:04:02.101Z,0
2016-10-17T04:05:02.109Z,0
2016-10-17T04:06:02.077Z,0
2016-10-17T04:07:02.372Z,0
2016-10-17T04:08:02.076Z,0
2016-10-17T04:09:02.365Z,0
2016-10-17T04:10:02.020Z,0
2016-10-17T04:11:02.332Z,0
2016-10-17T04:12:02.308Z,0
2016-10-17T04:13:01.993Z,0
2016-10-17T04:14:02.282Z,0
2016-10-17T04:15:02.268Z,0
2016-10-17T04:16:01.942Z,0
2016-10-17T04:17:01.929Z,0
2016-10-17T04:18:01.916Z,0
2016-10-17T04:19:01.897Z,0
2016-10-17T04:20:02.224Z,0
2016-10-17T04:21:02.190Z,0
2016-10-17T04:22:01.865Z,0
2016-10-17T04:23:02.160Z,0
2016-10-17T04:24:01.837Z,0
2016-10-17T04:25:01.820Z,0
2016-10-17T04:26:01.808Z,0
2016-10-17T04:27:01.803Z,0
2016-10-17T04:28:01.783Z,0
2016-10-17T04:29:02.083Z,0
2016-10-17T04:30:01.759Z,0
2016-10-17T04:31:01.752Z,0
2016-10-17T04:32:01.732Z,0
2016-10-17T04:33:01.727Z,0
2016-10-17T04:34:02.369Z,0
2016-10-17T04:35:01.691Z,0
2016-10-17T04:36:02.578Z,0
2016-10-17T04:37:02.314Z,0
2016-10-17T04:38:01.980Z,0
2016-10-17T04:39:01.636Z,0
2016-10-17T04:40:01.932Z,0
2016-10-17T04:41:01.936Z,0
2016-10-17T04:42:01.909Z,0
2016-10-17T04:43:01.927Z,0
2016-10-17T04:44:01.895Z,0
2016-10-17T04:45:01.559Z,0
2016-10-17T04:46:01.872Z,0
2016-10-17T04:47:01.856Z,0
2016-10-17T04:48:02.459Z,0
2016-10-17T04:49:01.506Z,0
2016-10-17T04:50:02.111Z,0
2016-10-17T04:51:01.482Z,0
2016-10-17T04:52:01.783Z,0
2016-10-17T04:53:01.445Z,0
2016-10-17T04:54:01.760Z,0
2016-10-17T04:55:01.737Z,0
2016-10-17T04:56:01.463Z,0
2016-10-17T04:57:01.711Z,0
2016-10-17T04:58:01.703Z,0
2016-10-17T04:59:01.699Z,0
2016-10-17T05:00:01.366Z,0
2016-10-17T05:01:01.358Z,0
2016-10-17T05:02:01.338Z,0
2016-10-17T05:03:01.631Z,0
2016-10-17T05:04:01.319Z,0
2016-10-17T05:05:01.291Z,0
2016-10-17T05:06:01.282Z,0
2016-10-17T05:07:01.286Z,0
2016-10-17T05:08:01.265Z,0
2016-10-17T05:09:01.242Z,0
2016-10-17T05:10:01.538Z,0
2016-10-17T05:11:01.213Z,0
2016-10-17T05:12:01.200Z,0
2016-10-17T05:13:01.813Z,0
2016-10-17T05:14:01.505Z,0
2016-10-17T05:15:01.468Z,0
2016-10-17T05:16:01.145Z,0
2016-10-17T05:17:01.331Z,0
2016-10-17T05:18:01.758Z,0
2016-10-17T05:19:01.107Z,0
2016-10-17T05:20:01.088Z,0
2016-10-17T05:21:01.128Z,0
2016-10-17T05:22:01.202Z,0
2016-10-17T05:23:01.388Z,0
2016-10-17T05:24:01.043Z,0
2016-10-17T05:25:01.053Z,0
2016-10-17T05:26:01.016Z,0
2016-10-17T05:27:01.377Z,0
2016-10-17T05:28:00.998Z,0
2016-10-17T05:29:01.289Z,0
2016-10-17T05:30:00.970Z,0
2016-10-17T05:31:00.954Z,0
2016-10-17T05:32:01.271Z,0
2016-10-17T05:33:00.926Z,0
2016-10-17T05:34:00.911Z,0
2016-10-17T05:35:00.895Z,0
2016-10-17T05:36:00.882Z,0
2016-10-17T05:37:01.228Z,0
2016-10-17T05:38:01.168Z,0
2016-10-17T05:39:00.840Z,0
2016-10-17T05:40:00.826Z,0
2016-10-17T05:41:01.137Z,0
2016-10-17T05:42:00.808Z,0
2016-10-17T05:43:00.796Z,0
2016-10-17T05:44:00.804Z,0
2016-10-17T05:45:00.766Z,0
2016-10-17T05:46:01.070Z,0
2016-10-17T05:47:00.740Z,0
2016-10-17T05:48:01.363Z,0
2016-10-17T05:49:01.026Z,0
2016-10-17T05:50:01.013Z,0
2016-10-17T05:51:00.694Z,0
2016-10-17T05:52:01.006Z,0
2016-10-17T05:53:00.986Z,0
2016-10-17T05:54:00.846Z,0
2016-10-17T05:55:00.642Z,0
2016-10-17T05:56:00.935Z,0
2016-10-17T05:57:00.913Z,0
2016-10-17T05:58:00.906Z,0
2016-10-17T05:59:00.893Z,0
2016-10-17T06:00:00.570Z,0
2016-10-17T06:01:00.568Z,0
2016-10-17T06:02:00.845Z,0
2016-10-17T06:03:00.534Z,0
2016-10-17T06:04:00.523Z,0
2016-10-17T06:05:00.503Z,0
2016-10-17T06:06:00.801Z,5
2016-10-17T06:07:00.785Z,5
2016-10-17T06:08:00.779Z,5
2016-10-17T06:09:00.761Z,5
2016-10-17T06:10:00.745Z,5
2016-10-17T06:11:00.734Z,5
2016-10-17T06:12:00.409Z,5
2016-10-17T06:13:00.388Z,5
2016-10-17T06:14:00.380Z,5
2016-10-17T06:15:00.396Z,10
2016-10-17T06:16:00.364Z,10
2016-10-17T06:17:00.677Z,10
2016-10-17T06:18:00.649Z,10
2016-10-17T06:19:00.649Z,10
2016-10-17T06:20:00.631Z,10
2016-10-17T06:21:00.286Z,10
2016-10-17T06:22:00.908Z,15
2016-10-17T06:23:00.264Z,15
2016-10-17T06:24:00.261Z,15
2016-10-17T06:25:00.550Z,15
2016-10-17T06:26:00.536Z,15
2016-10-17T06:27:00.538Z,20
2016-10-17T06:28:00.196Z,20
2016-10-17T06:29:00.181Z,20
2016-10-17T06:30:00.173Z,20
2016-10-17T06:31:00.780Z,20
2016-10-17T06:32:00.154Z,25
2016-10-17T06:33:00.140Z,25
2016-10-17T06:34:00.194Z,25
2016-10-17T06:35:00.498Z,25
2016-10-17T06:36:00.747Z,30
2016-10-17T06:37:00.395Z,30
2016-10-17T06:38:01.091Z,30
2016-10-17T06:39:00.076Z,30
2016-10-17T06:40:00.360Z,30
2016-10-17T06:41:00.339Z,30
2016-10-17T06:42:00.344Z,35
2016-10-17T06:42:59.992Z,35
2016-10-17T06:43:59.990Z,35
2016-10-17T06:44:59.970Z,35
2016-10-17T06:45:59.977Z,40
2016-10-17T06:47:00.281Z,40
2016-10-17T06:48:00.244Z,40
2016-10-17T06:48:59.921Z,40
2016-10-17T06:49:59.908Z,45
2016-10-17T06:51:00.205Z,45
2016-10-17T06:51:59.916Z,45
2016-10-17T06:53:00.200Z,45
2016-10-17T06:54:00.475Z,45
2016-10-17T06:55:00.161Z,45
2016-10-17T06:55:59.828Z,45
2016-10-17T06:56:59.820Z,50
2016-10-17T06:57:59.813Z,50
2016-10-17T06:59:00.104Z,50
2016-10-17T07:00:00.116Z,50
2016-10-17T07:01:00.086Z,50
2016-10-17T07:01:59.755Z,50
2016-10-17T07:03:00.046Z,50
2016-10-17T07:03:59.723Z,50
2016-10-17T07:04:59.710Z,50
2016-10-17T07:05:59.689Z,50
2016-10-17T07:06:59.997Z,50
2016-10-17T07:07:59.708Z,50
2016-10-17T07:08:59.681Z,50
2016-10-17T07:09:59.650Z,55
2016-10-17T07:10:59.632Z,55
2016-10-17T07:11:59.624Z,55
2016-10-17T07:12:59.605Z,60
2016-10-17T07:13:59.601Z,60
2016-10-17T07:14:59.594Z,65
2016-10-17T07:15:59.604Z,65
2016-10-17T07:17:00.166Z,65
2016-10-17T07:17:59.540Z,70
2016-10-17T07:18:59.529Z,70
2016-10-17T07:20:00.189Z,70
2016-10-17T07:21:00.028Z,75
2016-10-17T07:21:59.834Z,70
2016-10-17T07:22:59.838Z,70
2016-10-17T07:23:59.794Z,70
2016-10-17T07:24:59.807Z,75
2016-10-17T07:25:59.450Z,75
2016-10-17T07:26:59.435Z,75
2016-10-17T07:27:59.737Z,75
2016-10-17T07:28:59.418Z,75
2016-10-17T07:29:59.448Z,75
2016-10-17T07:30:59.702Z,75
2016-10-17T07:31:59.370Z,75
2016-10-17T07:32:59.354Z,75
2016-10-17T07:33:59.341Z,75
2016-10-17T07:34:59.330Z,75
2016-10-17T07:35:59.316Z,75
2016-10-17T07:36:59.613Z,75
2016-10-17T07:37:59.605Z,75
2016-10-17T07:38:59.901Z,80
2016-10-17T07:39:59.270Z,80
2016-10-17T07:40:59.574Z,85
2016-10-17T07:41:59.567Z,90
2016-10-17T07:42:59.590Z,90
2016-10-17T07:43:59.229Z,95
2016-10-17T07:44:59.214Z,95
2016-10-17T07:45:59.197Z,95
2016-10-17T07:46:59.183Z,100
2016-10-17T07:47:59.176Z,100
2016-10-17T07:48:59.159Z,100
2016-10-17T07:49:59.463Z,100
2016-10-17T07:50:59.137Z,100
2016-10-17T07:51:59.445Z,100
2016-10-17T07:52:59.113Z,100
2016-10-17T07:53:59.100Z,100
2016-10-17T07:54:59.714Z,100
2016-10-17T07:55:59.081Z,100
2016-10-17T07:56:59.380Z,100
2016-10-17T07:57:59.051Z,100
2016-10-17T07:58:59.352Z,105
2016-10-17T08:00:59.671Z,105
2016-10-17T08:01:59.329Z,105
2016-10-17T08:02:58.990Z,115
2016-10-17T08:03:58.996Z,115
2016-10-17T08:04:59.606Z,105
2016-10-17T08:05:58.964Z,130
2016-10-17T08:06:58.948Z,155
2016-10-17T08:07:58.935Z,120
2016-10-17T08:08:58.931Z,115
2016-10-17T08:09:59.233Z,120
2016-10-17T08:10:59.216Z,120
2016-10-17T08:11:59.218Z,120
2016-10-17T08:12:59.298Z,120
2016-10-17T08:13:59.262Z,120
2016-10-17T08:14:58.855Z,120
2016-10-17T08:15:58.854Z,120
2016-10-17T08:16:59.159Z,120
2016-10-17T08:17:58.834Z,115
2016-10-17T08:18:58.832Z,120
2016-10-17T08:19:59.131Z,125
2016-10-17T08:20:59.872Z,135
2016-10-17T08:21:58.778Z,140
2016-10-17T08:22:59.399Z,130
2016-10-17T08:23:59.073Z,135
2016-10-17T08:24:59.034Z,140
2016-10-17T08:25:59.401Z,145
2016-10-17T08:26:58.732Z,140
2016-10-17T08:27:59.036Z,130
2016-10-17T08:28:59.016Z,125
2016-10-17T08:29:58.690Z,125
2016-10-17T08:30:58.993Z,135
2016-10-17T08:31:58.673Z,140
2016-10-17T08:32:58.971Z,145
2016-10-17T08:33:58.644Z,190
2016-10-17T08:34:58.637Z,160
2016-10-17T08:35:59.253Z,145
2016-10-17T08:36:58.615Z,135
2016-10-17T08:37:58.604Z,115
2016-10-17T08:38:58.910Z,120
2016-10-17T08:39:58.584Z,125
2016-10-17T08:40:58.597Z,125
2016-10-17T08:41:58.565Z,125
2016-10-17T08:42:58.870Z,125
2016-10-17T08:43:58.554Z,140
2016-10-17T08:44:58.851Z,150
2016-10-17T08:45:59.463Z,130
2016-10-17T08:46:58.828Z,130
2016-10-17T08:47:58.848Z,135
2016-10-17T08:48:58.491Z,135
2016-10-17T08:49:58.798Z,140
2016-10-17T08:50:58.463Z,165
2016-10-17T08:51:58.772Z,165
2016-10-17T08:52:58.761Z,145
2016-10-17T08:53:58.442Z,150
2016-10-17T08:54:58.440Z,135
2016-10-17T08:55:58.412Z,135
2016-10-17T08:56:58.397Z,135
2016-10-17T08:57:59.015Z,135
2016-10-17T08:58:58.390Z,135
2016-10-17T08:59:58.387Z,130
2016-10-17T09:00:58.382Z,135
2016-10-17T09:01:58.728Z,125
2016-10-17T09:02:58.346Z,120
2016-10-17T09:03:58.659Z,120
2016-10-17T09:04:58.316Z,120
2016-10-17T09:05:58.634Z,120
2016-10-17T09:06:58.299Z,120
2016-10-17T09:07:58.313Z,125
2016-10-17T09:08:58.277Z,115
2016-10-17T09:09:58.270Z,110
2016-10-17T09:10:58.257Z,105
2016-10-17T09:11:58.247Z,105
2016-10-17T09:12:58.551Z,110
2016-10-17T09:13:58.558Z,115
2016-10-17T09:14:58.524Z,125
2016-10-17T09:15:58.217Z,125
2016-10-17T09:16:58.389Z,135
2016-10-17T09:17:58.223Z,155
2016-10-17T09:18:58.168Z,170
2016-10-17T09:19:58.467Z,165
2016-10-17T09:20:58.150Z,170
2016-10-17T09:21:58.603Z,180
2016-10-17T09:22:58.163Z,180
2016-10-17T09:23:58.119Z,170
2016-10-17T09:24:58.110Z,175
2016-10-17T09:25:58.103Z,215
2016-10-17T09:26:58.404Z,200
2016-10-17T09:27:58.397Z,200
2016-10-17T09:28:58.067Z,195
2016-10-17T09:29:58.064Z,180
2016-10-17T09:30:58.052Z,175
2016-10-17T09:31:58.038Z,165
2016-10-17T09:32:58.032Z,155
2016-10-17T09:33:58.330Z,160
2016-10-17T09:34:58.020Z,170
2016-10-17T09:35:57.997Z,180
2016-10-17T09:36:57.985Z,195
2016-10-17T09:37:58.014Z,225
2016-10-17T09:38:58.285Z,230
2016-10-17T09:39:57.988Z,230
2016-10-17T09:40:58.569Z,215
2016-10-17T09:41:57.939Z,210
2016-10-17T09:42:57.925Z,200
2016-10-17T09:43:58.250Z,190
2016-10-17T09:44:57.909Z,190
2016-10-17T09:45:58.834Z,180
2016-10-17T09:46:57.889Z,200
2016-10-17T09:47:58.211Z,210
2016-10-17T09:48:57.880Z,200
2016-10-17T09:49:58.181Z,200
2016-10-17T09:50:57.853Z,210
2016-10-17T09:51:57.845Z,205
2016-10-17T09:52:57.847Z,220
2016-10-17T09:53:57.821Z,215
2016-10-17T09:54:58.133Z,220
2016-10-17T09:55:57.801Z,245
2016-10-17T09:56:58.112Z,250
2016-10-17T09:57:57.787Z,225
2016-10-17T09:58:58.399Z,235
2016-10-17T09:59:57.787Z,255
2016-10-17T10:00:58.067Z,250
2016-10-17T10:01:59.005Z,250
2016-10-17T10:02:57.738Z,260
2016-10-17T10:03:57.731Z,265
2016-10-17T10:04:58.027Z,255
2016-10-17T10:05:57.705Z,255
2016-10-17T10:06:58.023Z,245
2016-10-17T10:07:57.737Z,245
2016-10-17T10:08:57.678Z,230
2016-10-17T10:09:57.988Z,220
2016-10-17T10:10:57.663Z,220
2016-10-17T10:11:58.285Z,215
2016-10-17T10:12:57.992Z,210
2016-10-17T10:13:57.643Z,215
2016-10-17T10:14:57.954Z,205
2016-10-17T10:15:57.931Z,205
2016-10-17T10:16:57.664Z,200
2016-10-17T10:17:57.598Z,200
2016-10-17T10:18:57.597Z,205
2016-10-17T10:19:57.587Z,215
2016-10-17T10:20:57.572Z,225
2016-10-17T10:21:57.877Z,225
2016-10-17T10:22:57.551Z,235
2016-10-17T10:23:57.544Z,240
2016-10-17T10:24:57.855Z,230
2016-10-17T10:25:57.536Z,225
2016-10-17T10:26:57.526Z,225
2016-10-17T10:27:57.511Z,225
2016-10-17T10:28:57.502Z,230
2016-10-17T10:29:57.495Z,230
2016-10-17T10:30:57.495Z,235
2016-10-17T10:31:57.483Z,235
2016-10-17T10:32:57.469Z,245
2016-10-17T10:33:57.522Z,245
2016-10-17T10:34:57.768Z,250
2016-10-17T10:35:57.497Z,250
2016-10-17T10:36:57.441Z,250
2016-10-17T10:37:57.740Z,260
2016-10-17T10:38:57.416Z,260
2016-10-17T10:39:57.410Z,255
2016-10-17T10:40:57.400Z,260
2016-10-17T10:41:57.388Z,260
2016-10-17T10:42:57.402Z,260
2016-10-17T10:43:57.375Z,260
2016-10-17T10:44:57.370Z,245
2016-10-17T10:45:57.409Z,250
2016-10-17T10:46:57.348Z,240
2016-10-17T10:47:57.341Z,245
2016-10-17T10:48:57.338Z,240
2016-10-17T10:49:57.647Z,235
2016-10-17T10:50:57.315Z,230
2016-10-17T10:51:57.672Z,215
2016-10-17T10:52:57.611Z,210
2016-10-17T10:53:57.334Z,225
2016-10-17T10:54:57.283Z,235
2016-10-17T10:55:57.282Z,245
2016-10-17T10:56:57.257Z,255
2016-10-17T10:57:57.258Z,280
2016-10-17T10:58:57.566Z,285
2016-10-17T10:59:57.550Z,275
2016-10-17T11:00:57.236Z,275
2016-10-17T11:01:57.227Z,295
2016-10-17T11:02:57.835Z,290
2016-10-17T11:03:57.214Z,265
2016-10-17T11:04:57.507Z,265
2016-10-17T11:05:57.184Z,255
2016-10-17T11:06:57.496Z,250
2016-10-17T11:07:57.180Z,240
2016-10-17T11:08:57.499Z,235
2016-10-17T11:09:57.526Z,230
2016-10-17T11:10:57.154Z,230
2016-10-17T11:11:57.454Z,245
2016-10-17T11:12:57.129Z,245
2016-10-17T11:13:57.122Z,240
2016-10-17T11:14:57.119Z,245
2016-10-17T11:15:57.421Z,250
2016-10-17T11:16:57.096Z,250
2016-10-17T11:17:57.914Z,250
2016-10-17T11:18:57.410Z,225
2016-10-17T11:19:57.703Z,215
2016-10-17T11:20:57.691Z,210
2016-10-17T11:21:57.051Z,210
2016-10-17T11:22:57.357Z,215
2016-10-17T11:23:57.356Z,205
2016-10-17T11:24:57.027Z,200
2016-10-17T11:25:57.021Z,200
2016-10-17T11:26:57.005Z,195
2016-10-17T11:27:57.012Z,190
2016-10-17T11:28:57.379Z,180
2016-10-17T11:29:57.008Z,175
2016-10-17T11:30:57.304Z,170
2016-10-17T11:31:57.049Z,160
2016-10-17T11:32:56.992Z,160
2016-10-17T11:33:56.953Z,165
2016-10-17T11:34:57.202Z,170
2016-10-17T11:35:57.253Z,180
2016-10-17T11:36:56.924Z,175
2016-10-17T11:37:57.232Z,170
2016-10-17T11:38:56.913Z,160
2016-10-17T11:39:56.896Z,155
2016-10-17T11:40:57.207Z,155
2016-10-17T11:41:56.882Z,165
2016-10-17T11:42:56.877Z,170
2016-10-17T11:43:57.182Z,175
2016-10-17T11:44:56.848Z,170
2016-10-17T11:45:56.853Z,160
2016-10-17T11:46:56.836Z,145
2016-10-17T11:47:56.826Z,140
2016-10-17T11:48:57.123Z,145
2016-10-17T11:49:56.814Z,150
2016-10-17T11:50:57.433Z,150
2016-10-17T11:51:57.139Z,145
2016-10-17T11:52:57.096Z,145
2016-10-17T11:53:57.094Z,150
2016-10-17T11:54:56.775Z,150
2016-10-17T11:55:56.809Z,150
2016-10-17T11:56:56.758Z,150
2016-10-17T11:57:57.050Z,155
2016-10-17T11:58:56.729Z,155
2016-10-17T11:59:56.714Z,155
2016-10-17T12:00:56.715Z,145
2016-10-17T12:01:57.016Z,135
2016-10-17T12:02:56.769Z,135
2016-10-17T12:03:57.001Z,130
2016-10-17T12:04:56.676Z,140
2016-10-17T12:05:56.661Z,150
2016-10-17T12:06:56.644Z,155
2016-10-17T12:07:56.952Z,155
2016-10-17T12:08:56.642Z,150
2016-10-17T12:09:56.940Z,150
2016-10-17T12:10:56.619Z,145
2016-10-17T12:11:56.608Z,140
2016-10-17T12:12:56.635Z,125
2016-10-17T12:13:56.608Z,120
2016-10-17T12:14:56.575Z,115
2016-10-17T12:15:56.577Z,115
2016-10-17T12:16:56.867Z,115
2016-10-17T12:17:56.578Z,120
2016-10-17T12:18:57.493Z,120
2016-10-17T12:19:56.539Z,120
2016-10-17T12:20:56.531Z,115
2016-10-17T12:21:56.825Z,115
2016-10-17T12:22:56.830Z,115
2016-10-17T12:23:56.512Z,115
2016-10-17T12:24:56.528Z,115
2016-10-17T12:25:56.845Z,115
2016-10-17T12:26:56.776Z,115
2016-10-17T12:27:56.461Z,110
2016-10-17T12:28:56.460Z,115
2016-10-17T12:29:56.772Z,115
2016-10-17T12:30:56.742Z,115
2016-10-17T12:31:56.748Z,110
2016-10-17T12:32:56.415Z,110
2016-10-17T12:33:56.419Z,115
2016-10-17T12:34:56.400Z,105
2016-10-17T12:35:56.375Z,100
2016-10-17T12:36:56.687Z,100
2016-10-17T12:37:56.678Z,95
2016-10-17T12:38:56.349Z,95
2016-10-17T12:39:56.432Z,95
2016-10-17T12:40:56.330Z,95
2016-10-17T12:41:56.971Z,105
2016-10-17T12:42:56.355Z,100
2016-10-17T12:43:56.632Z,100
2016-10-17T12:44:56.285Z,95
2016-10-17T12:45:56.275Z,95
2016-10-17T12:46:56.279Z,95
2016-10-17T12:47:57.247Z,90
2016-10-17T12:48:56.260Z,90
2016-10-17T12:49:56.312Z,90
2016-10-17T12:50:56.282Z,90
2016-10-17T12:51:56.237Z,90
2016-10-17T12:52:56.569Z,90
2016-10-17T12:53:56.208Z,90
2016-10-17T12:54:56.233Z,90
2016-10-17T12:55:56.504Z,90
2016-10-17T12:56:56.185Z,85
2016-10-17T12:57:56.177Z,80
2016-10-17T12:58:56.155Z,80
2016-10-17T12:59:56.144Z,80
2016-10-17T13:00:56.793Z,80
2016-10-17T13:01:56.127Z,80
2016-10-17T13:02:56.429Z,75
2016-10-17T13:03:56.102Z,70
2016-10-17T13:04:56.441Z,70
2016-10-17T13:05:56.090Z,70
2016-10-17T13:06:56.077Z,65
2016-10-17T13:07:56.066Z,65
2016-10-17T13:08:56.362Z,65
2016-10-17T13:09:56.359Z,65
2016-10-17T13:10:56.349Z,65
2016-10-17T13:11:56.333Z,65
2016-10-17T13:12:56.011Z,65
2016-10-17T13:13:56.060Z,65
2016-10-17T13:14:55.998Z,65
2016-10-17T13:15:55.986Z,65
2016-10-17T13:16:56.006Z,65
2016-10-17T13:17:56.167Z,65
2016-10-17T13:18:55.957Z,65
2016-10-17T13:19:55.962Z,65
2016-10-17T13:20:56.254Z,65
2016-10-17T13:21:55.932Z,65
2016-10-17T13:22:55.918Z,60
2016-10-17T13:23:56.851Z,60
2016-10-17T13:24:55.895Z,65
2016-10-17T13:25:56.228Z,60
2016-10-17T13:26:55.879Z,60
2016-10-17T13:27:55.871Z,60
2016-10-17T13:28:55.852Z,60
2016-10-17T13:29:56.478Z,60
2016-10-17T13:30:55.850Z,60
2016-10-17T13:31:55.823Z,65
2016-10-17T13:32:55.820Z,65
2016-10-17T13:33:56.116Z,65
2016-10-17T13:34:55.800Z,65
2016-10-17T13:35:56.108Z,65
2016-10-17T13:36:55.769Z,65
2016-10-17T13:37:55.796Z,65
2016-10-17T13:38:56.066Z,65
2016-10-17T13:39:55.750Z,65
2016-10-17T13:40:55.732Z,65
2016-10-17T13:41:56.356Z,65
2016-10-17T13:42:55.712Z,65
2016-10-17T13:43:55.704Z,65
2016-10-17T13:44:55.714Z,65
2016-10-17T13:45:56.005Z,70
2016-10-17T13:46:55.682Z,70
2016-10-17T13:47:55.668Z,75
2016-10-17T13:48:55.654Z,75
2016-10-17T13:49:55.961Z,75
2016-10-17T13:50:55.641Z,75
2016-10-17T13:51:55.633Z,75
2016-10-17T13:52:55.614Z,75
2016-10-17T13:53:55.632Z,75
2016-10-17T13:54:55.596Z,75
2016-10-17T13:55:55.584Z,75
2016-10-17T13:56:55.567Z,70
2016-10-17T13:57:56.192Z,75
2016-10-17T13:58:55.863Z,75
2016-10-17T13:59:55.546Z,70
2016-10-17T14:00:55.844Z,70
2016-10-17T14:01:55.867Z,70
2016-10-17T14:02:55.514Z,65
2016-10-17T14:03:55.500Z,65
2016-10-17T14:04:55.499Z,65
2016-10-17T14:05:55.810Z,65
2016-10-17T14:06:55.817Z,65
2016-10-17T14:07:55.781Z,70
2016-10-17T14:08:55.444Z,70
2016-10-17T14:09:55.748Z,70
2016-10-17T14:10:56.070Z,70
2016-10-17T14:11:55.427Z,70
2016-10-17T14:12:55.722Z,65
2016-10-17T14:13:55.413Z,65
2016-10-17T14:14:55.387Z,65
2016-10-17T14:15:55.444Z,65
2016-10-17T14:16:55.416Z,65
2016-10-17T14:17:55.717Z,60
2016-10-17T14:18:55.345Z,60